Time;durP1;ratioP1;P1;durP2;ratioP2;P2;SDS_P1;SDS_P2;PMS_P1;PMS_P2;Temp;Humidity;BMP_temperature;BMP_pressure;BME280_temperature;BME280_humidity;BME280_pressure;Samples;Min_cycle;Max_cycle;Signal;HPM_P1;HPM_P2
2023/07/10 00:00:04;;;;;;;7.55;4.90;;;;;;;;;;626718;23;953;-75
2023/07/10 00:00:19;;;;;;;8.52;4.80;;;;;;;;;;632074;23;1053;-75
2023/07/10 00:00:34;;;;;;;7.57;4.65;;;;;;;;;;634901;22;956;-75
2023/07/10 00:00:51;;;;;;;7.27;4.50;;;;;;;;;;637754;22;808;-75
2023/07/10 00:01:06;;;;;;;7.38;4.60;;;;;;;;;;633759;23;1265;-75
2023/07/10 00:01:23;;;;;;;7.43;4.70;;;;;;;;;;633978;23;842;-74
2023/07/10 00:01:39;;;;;;;7.32;4.72;;;;;;;;;;634329;23;1248;-75
2023/07/10 00:01:54;;;;;;;7.57;4.65;;;;;;;;;;634368;23;1183;-75
2023/07/10 00:02:10;;;;;;;7.87;4.57;;;;;;;;;;634091;23;1171;-75
2023/07/10 00:02:25;;;;;;;7.47;4.67;;;;;;;;;;634299;23;791;-75
2023/07/10 00:02:40;;;;;;;7.80;4.80;;;;;;;;;;634515;23;1408;-75
2023/07/10 00:02:56;;;;;;;8.47;4.80;;;;;;;;;;634152;23;794;-75
2023/07/10 00:03:11;;;;;;;7.33;4.50;;;;;;;;;;631119;23;1227;-76
2023/07/10 00:03:28;;;;;;;6.05;4.50;;;;;;;;;;631067;23;1327;-75
2023/07/10 00:03:43;;;;;;;5.45;4.43;;;;;;;;;;627577;23;1282;-75
2023/07/10 00:03:59;;;;;;;6.03;4.43;;;;;;;;;;627997;23;929;-75
2023/07/10 00:04:20;;;;;;;7.30;4.67;;;;;;;;;;627979;23;942;-75
2023/07/10 00:04:35;;;;;;;6.30;4.45;;;;;;;;;;627150;23;1267;-75
2023/07/10 00:04:51;;;;;;;6.38;4.47;;;;;;;;;;624764;23;1139;-75
2023/07/10 00:05:17;;;;;;;5.97;4.63;;;;;;;;;;621990;23;1351;-75
2023/07/10 00:05:33;;;;;;;7.20;4.63;;;;;;;;;;626423;23;843;-75
2023/07/10 00:05:48;;;;;;;7.20;4.30;;;;;;;;;;624661;23;1223;-75
2023/07/10 00:06:08;;;;;;;8.90;4.30;;;;;;;;;;625054;23;1254;-76
2023/07/10 00:06:23;;;;;;;8.15;4.60;;;;;;;;;;621822;23;1227;-76
2023/07/10 00:06:39;;;;;;;6.72;4.47;;;;;;;;;;622082;23;1477;-76
2023/07/10 00:06:54;;;;;;;6.77;4.67;;;;;;;;;;620022;23;1243;-76
2023/07/10 00:07:10;;;;;;;7.05;4.95;;;;;;;;;;622315;23;1203;-76
2023/07/10 00:07:25;;;;;;;8.30;4.97;;;;;;;;;;621164;23;820;-75
2023/07/10 00:07:41;;;;;;;8.07;4.97;;;;;;;;;;622105;23;1444;-75
2023/07/10 00:07:56;;;;;;;6.55;4.60;;;;;;;;;;623293;23;1256;-74
2023/07/10 00:08:12;;;;;;;6.35;4.53;;;;;;;;;;618952;23;1177;-75
2023/07/10 00:08:27;;;;;;;5.97;4.53;;;;;;;;;;619151;23;828;-75
2023/07/10 00:08:42;;;;;;;6.87;4.60;;;;;;;;;;622550;23;808;-75
2023/07/10 00:08:58;;;;;;;8.07;4.68;;;;;;;;;;625182;23;1456;-76
2023/07/10 00:09:14;;;;;;;6.97;4.70;;;;;;;;;;625548;23;1204;-75
2023/07/10 00:09:29;;;;;;;7.18;4.90;;;;;;;;;;625367;23;1190;-75
2023/07/10 00:09:44;;;;;;;7.43;4.87;;;;;;;;;;627552;23;989;-75
2023/07/10 00:10:00;;;;;;;7.75;4.70;;;;;;;;;;623933;23;1384;-75
2023/07/10 00:10:16;;;;;;;7.73;4.63;;;;;;;;;;624739;23;1196;-76
2023/07/10 00:10:32;;;;;;;6.55;4.70;;;;;;;;;;620956;23;1334;-75
2023/07/10 00:10:48;;;;;;;6.57;4.77;;;;;;;;;;622033;23;997;-76
2023/07/10 00:11:10;;;;;;;7.82;4.95;;;;;;;;;;622209;23;989;-75
2023/07/10 00:11:30;;;;;;;8.68;4.93;;;;;;;;;;625305;23;1239;-75
2023/07/10 00:11:46;;;;;;;8.57;5.00;;;;;;;;;;621497;23;1533;-75
2023/07/10 00:12:01;;;;;;;8.73;4.97;;;;;;;;;;625394;23;839;-75
2023/07/10 00:12:20;;;;;;;9.50;4.80;;;;;;;;;;624734;23;1268;-75
2023/07/10 00:12:36;;;;;;;9.55;4.80;;;;;;;;;;625139;23;1414;-75
2023/07/10 00:12:51;;;;;;;9.07;4.90;;;;;;;;;;621988;23;1216;-75
2023/07/10 00:13:10;;;;;;;9.10;5.07;;;;;;;;;;622203;23;839;-75
2023/07/10 00:13:26;;;;;;;8.47;4.90;;;;;;;;;;622433;23;1914;-75
2023/07/10 00:13:41;;;;;;;7.88;4.85;;;;;;;;;;622455;23;1210;-76
2023/07/10 00:13:57;;;;;;;7.23;4.67;;;;;;;;;;620969;23;1287;-75
2023/07/10 00:14:22;;;;;;;7.07;4.57;;;;;;;;;;624872;23;1352;-76
2023/07/10 00:14:37;;;;;;;7.00;4.80;;;;;;;;;;624828;23;855;-75
2023/07/10 00:14:52;;;;;;;9.27;4.90;;;;;;;;;;625829;23;1172;-75
2023/07/10 00:15:28;;;;;;;10.73;5.10;;;;;;;;;;622037;23;1240;-75
2023/07/10 00:15:43;;;;;;;8.68;4.78;;;;;;;;;;621617;23;1202;-75
2023/07/10 00:15:59;;;;;;;8.37;4.60;;;;;;;;;;621851;23;1338;-75
2023/07/10 00:16:17;;;;;;;7.97;4.55;;;;;;;;;;621580;23;1409;-75
2023/07/10 00:16:32;;;;;;;7.65;4.70;;;;;;;;;;623520;23;1523;-75
2023/07/10 00:16:49;;;;;;;8.27;4.60;;;;;;;;;;626887;23;1155;-75
2023/07/10 00:17:05;;;;;;;8.02;4.40;;;;;;;;;;625707;23;890;-76
2023/07/10 00:17:20;;;;;;;6.93;4.68;;;;;;;;;;621551;23;1294;-76
2023/07/10 00:17:35;;;;;;;7.47;4.90;;;;;;;;;;622058;23;1271;-76
2023/07/10 00:17:52;;;;;;;7.37;4.73;;;;;;;;;;625118;23;1281;-75
2023/07/10 00:18:16;;;;;;;7.73;4.63;;;;;;;;;;625518;23;1766;-75
2023/07/10 00:18:31;;;;;;;7.07;4.93;;;;;;;;;;622271;23;1374;-76
2023/07/10 00:18:47;;;;;;;6.63;4.85;;;;;;;;;;622567;23;901;-76
2023/07/10 00:19:13;;;;;;;6.95;4.60;;;;;;;;;;622429;23;863;-75
2023/07/10 00:19:28;;;;;;;7.78;4.72;;;;;;;;;;627268;23;1068;-75
2023/07/10 00:19:44;;;;;;;7.70;4.77;;;;;;;;;;626801;23;1486;-75
2023/07/10 00:19:59;;;;;;;7.43;4.67;;;;;;;;;;630038;23;835;-75
2023/07/10 00:20:18;;;;;;;6.65;4.60;;;;;;;;;;630379;23;831;-75
2023/07/10 00:20:33;;;;;;;6.90;4.47;;;;;;;;;;630782;23;1280;-75
2023/07/10 00:20:49;;;;;;;6.33;4.40;;;;;;;;;;630705;23;1204;-75
2023/07/10 00:21:05;;;;;;;6.10;4.32;;;;;;;;;;630997;23;1296;-76
2023/07/10 00:21:20;;;;;;;7.13;4.47;;;;;;;;;;627162;23;1374;-75
2023/07/10 00:21:36;;;;;;;7.87;4.60;;;;;;;;;;629655;23;1183;-76
2023/07/10 00:21:51;;;;;;;8.07;4.73;;;;;;;;;;630555;23;985;-75
2023/07/10 00:22:07;;;;;;;8.73;4.75;;;;;;;;;;628530;23;1262;-75
2023/07/10 00:22:22;;;;;;;8.27;4.77;;;;;;;;;;625306;23;1377;-75
2023/07/10 00:22:37;;;;;;;8.02;4.95;;;;;;;;;;625461;23;1335;-75
2023/07/10 00:23:13;;;;;;;8.27;4.90;;;;;;;;;;628389;23;1311;-75
2023/07/10 00:23:29;;;;;;;7.55;4.80;;;;;;;;;;626471;23;1352;-75
2023/07/10 00:23:45;;;;;;;7.93;4.90;;;;;;;;;;627658;23;919;-76
2023/07/10 00:24:00;;;;;;;7.53;4.78;;;;;;;;;;625246;23;1366;-75
2023/07/10 00:24:15;;;;;;;6.97;4.73;;;;;;;;;;624919;23;1168;-75
2023/07/10 00:24:31;;;;;;;7.37;4.87;;;;;;;;;;623787;23;1279;-75
2023/07/10 00:24:46;;;;;;;7.17;4.70;;;;;;;;;;626939;23;846;-75
2023/07/10 00:25:02;;;;;;;7.20;4.70;;;;;;;;;;627927;23;1326;-75
2023/07/10 00:25:18;;;;;;;8.77;4.85;;;;;;;;;;626345;23;1505;-75
2023/07/10 00:25:35;;;;;;;8.68;4.80;;;;;;;;;;628634;23;1384;-75
2023/07/10 00:25:50;;;;;;;8.50;4.57;;;;;;;;;;627949;23;1335;-75
2023/07/10 00:26:12;;;;;;;7.35;4.50;;;;;;;;;;628920;23;1302;-75
2023/07/10 00:26:27;;;;;;;7.53;4.60;;;;;;;;;;627850;23;867;-76
2023/07/10 00:26:43;;;;;;;8.47;4.77;;;;;;;;;;631429;23;1346;-75
2023/07/10 00:26:58;;;;;;;7.53;4.60;;;;;;;;;;627981;23;1333;-75
2023/07/10 00:27:13;;;;;;;6.20;4.33;;;;;;;;;;628366;23;950;-75
2023/07/10 00:27:29;;;;;;;6.28;4.40;;;;;;;;;;624689;23;1360;-76
2023/07/10 00:27:49;;;;;;;6.93;4.57;;;;;;;;;;625440;23;779;-75
2023/07/10 00:28:14;;;;;;;5.87;4.30;;;;;;;;;;624746;23;1460;-75
2023/07/10 00:28:29;;;;;;;6.28;4.15;;;;;;;;;;624506;23;1391;-75
2023/07/10 00:28:45;;;;;;;6.00;4.10;;;;;;;;;;625261;23;1311;-75
2023/07/10 00:29:14;;;;;;;6.63;4.25;;;;;;;;;;628204;23;870;-75
2023/07/10 00:29:31;;;;;;;7.75;4.70;;;;;;;;;;628447;23;1415;-75
2023/07/10 00:29:47;;;;;;;8.55;4.80;;;;;;;;;;628094;23;930;-75
2023/07/10 00:30:03;;;;;;;7.90;4.80;;;;;;;;;;630499;23;910;-76
2023/07/10 00:30:23;;;;;;;7.53;4.60;;;;;;;;;;627716;23;1228;-76
2023/07/10 00:30:40;;;;;;;6.65;4.15;;;;;;;;;;626457;23;1386;-75
2023/07/10 00:30:55;;;;;;;7.68;4.20;;;;;;;;;;627432;23;1326;-75
2023/07/10 00:31:13;;;;;;;8.03;4.30;;;;;;;;;;628272;23;906;-75
2023/07/10 00:31:28;;;;;;;7.07;4.20;;;;;;;;;;628025;23;1614;-75
2023/07/10 00:31:43;;;;;;;6.73;4.20;;;;;;;;;;628311;23;890;-75
2023/07/10 00:31:59;;;;;;;7.60;4.43;;;;;;;;;;627971;23;1216;-75
2023/07/10 00:32:14;;;;;;;7.47;4.70;;;;;;;;;;626589;23;1176;-76
2023/07/10 00:32:30;;;;;;;7.22;4.65;;;;;;;;;;624334;23;1247;-75
2023/07/10 00:32:46;;;;;;;7.97;4.80;;;;;;;;;;622469;23;1426;-75
2023/07/10 00:33:04;;;;;;;9.00;4.90;;;;;;;;;;624790;23;828;-75
2023/07/10 00:33:20;;;;;;;9.35;4.63;;;;;;;;;;626285;23;922;-76
2023/07/10 00:33:35;;;;;;;8.77;4.53;;;;;;;;;;624395;23;1993;-75
2023/07/10 00:33:51;;;;;;;8.87;4.60;;;;;;;;;;623334;23;1343;-75
2023/07/10 00:34:13;;;;;;;7.90;4.53;;;;;;;;;;623676;23;895;-75
2023/07/10 00:34:28;;;;;;;9.25;4.93;;;;;;;;;;624513;23;1565;-75
2023/07/10 00:34:44;;;;;;;8.80;5.10;;;;;;;;;;624357;23;1457;-75
2023/07/10 00:34:59;;;;;;;9.25;4.90;;;;;;;;;;624986;23;815;-75
2023/07/10 00:35:17;;;;;;;8.67;4.37;;;;;;;;;;624405;23;1196;-75
2023/07/10 00:35:32;;;;;;;6.20;4.10;;;;;;;;;;626891;23;1271;-75
2023/07/10 00:35:48;;;;;;;6.97;4.40;;;;;;;;;;628445;23;1290;-76
2023/07/10 00:36:21;;;;;;;8.10;4.67;;;;;;;;;;625111;23;1199;-75
2023/07/10 00:36:40;;;;;;;7.18;4.43;;;;;;;;;;626148;23;867;-75
2023/07/10 00:36:55;;;;;;;5.63;4.13;;;;;;;;;;627907;23;1370;-76
2023/07/10 00:37:11;;;;;;;7.77;4.63;;;;;;;;;;627654;23;835;-76
2023/07/10 00:37:26;;;;;;;8.40;4.85;;;;;;;;;;628977;23;1451;-75
2023/07/10 00:37:41;;;;;;;6.70;4.60;;;;;;;;;;626607;23;1245;-76
2023/07/10 00:38:01;;;;;;;7.30;4.57;;;;;;;;;;625386;23;1123;-75
2023/07/10 00:38:25;;;;;;;8.18;4.55;;;;;;;;;;624592;23;855;-75
2023/07/10 00:38:41;;;;;;;6.25;4.35;;;;;;;;;;625316;23;894;-75
2023/07/10 00:38:59;;;;;;;6.57;4.40;;;;;;;;;;628058;23;835;-75
2023/07/10 00:39:20;;;;;;;6.00;4.30;;;;;;;;;;628301;23;1330;-75
2023/07/10 00:39:37;;;;;;;6.03;4.32;;;;;;;;;;633047;23;797;-75
2023/07/10 00:39:52;;;;;;;6.47;4.70;;;;;;;;;;631001;23;1253;-75
2023/07/10 00:40:17;;;;;;;6.50;4.77;;;;;;;;;;628072;23;1312;-76
2023/07/10 00:40:33;;;;;;;7.35;4.53;;;;;;;;;;624499;23;862;-75
2023/07/10 00:40:49;;;;;;;6.68;4.63;;;;;;;;;;625427;23;832;-76
2023/07/10 00:41:06;;;;;;;8.18;4.80;;;;;;;;;;625795;23;855;-75
2023/07/10 00:41:23;;;;;;;8.13;4.60;;;;;;;;;;625027;23;1505;-75
2023/07/10 00:41:40;;;;;;;8.63;4.75;;;;;;;;;;621520;23;1456;-75
2023/07/10 00:41:59;;;;;;;9.10;4.85;;;;;;;;;;622250;23;1221;-74
2023/07/10 00:42:18;;;;;;;8.38;4.93;;;;;;;;;;622048;23;1222;-75
2023/07/10 00:42:34;;;;;;;8.90;4.72;;;;;;;;;;624881;23;1220;-75
2023/07/10 00:42:55;;;;;;;8.73;4.70;;;;;;;;;;622373;23;1286;-75
2023/07/10 00:43:25;;;;;;;8.63;4.68;;;;;;;;;;624511;23;1427;-75
2023/07/10 00:43:52;;;;;;;7.82;4.68;;;;;;;;;;621742;23;871;-75
2023/07/10 00:44:09;;;;;;;8.27;4.47;;;;;;;;;;623205;23;1235;-75
2023/07/10 00:44:31;;;;;;;7.43;4.70;;;;;;;;;;624880;23;1457;-75
2023/07/10 00:44:51;;;;;;;7.63;4.80;;;;;;;;;;624245;23;1247;-75
2023/07/10 00:45:12;;;;;;;6.82;4.50;;;;;;;;;;621865;23;1145;-75
2023/07/10 00:45:27;;;;;;;6.93;4.40;;;;;;;;;;622157;23;906;-75
2023/07/10 00:45:42;;;;;;;6.87;4.43;;;;;;;;;;624541;23;883;-75
2023/07/10 00:46:09;;;;;;;8.65;4.78;;;;;;;;;;621523;23;1279;-75
2023/07/10 00:46:35;;;;;;;7.40;4.77;;;;;;;;;;623977;23;900;-76
2023/07/10 00:47:03;;;;;;;6.70;4.40;;;;;;;;;;626790;23;1161;-75
2023/07/10 00:47:27;;;;;;;5.97;4.15;;;;;;;;;;631513;23;898;-75
2023/07/10 00:47:57;;;;;;;6.40;4.07;;;;;;;;;;630668;23;902;-75
2023/07/10 00:48:40;;;;;;;7.68;4.30;;;;;;;;;;634586;22;922;-75
2023/07/10 00:49:32;;;;;;;5.30;4.20;;;;;;;;;;634316;23;1364;-75
2023/07/10 00:49:50;;;;;;;8.27;4.43;;;;;;;;;;630931;23;1054;-75
2023/07/10 00:50:19;;;;;;;7.10;4.50;;;;;;;;;;633642;23;1231;-75
2023/07/10 00:50:39;;;;;;;7.50;4.47;;;;;;;;;;634356;23;968;-76
2023/07/10 00:50:57;;;;;;;6.85;4.40;;;;;;;;;;637024;22;1041;-75
2023/07/10 00:51:28;;;;;;;6.38;4.25;;;;;;;;;;637456;22;1266;-75
2023/07/10 00:51:52;;;;;;;6.38;4.38;;;;;;;;;;633827;23;875;-75
2023/07/10 00:52:22;;;;;;;6.60;4.68;;;;;;;;;;634122;23;937;-75
2023/07/10 00:52:41;;;;;;;8.15;4.28;;;;;;;;;;631260;23;1465;-75
2023/07/10 00:52:59;;;;;;;7.70;4.30;;;;;;;;;;631038;23;903;-75
2023/07/10 00:53:31;;;;;;;5.93;4.30;;;;;;;;;;627797;23;1318;-75
2023/07/10 00:53:48;;;;;;;5.75;4.13;;;;;;;;;;627638;23;1386;-75
2023/07/10 00:54:04;;;;;;;7.68;4.43;;;;;;;;;;628826;23;1845;-75
2023/07/10 00:55:05;;;;;;;8.35;4.57;;;;;;;;;;628259;23;926;-75
2023/07/10 00:55:36;;;;;;;7.93;4.38;;;;;;;;;;626587;23;1134;-75
2023/07/10 00:56:14;;;;;;;6.75;4.40;;;;;;;;;;631212;23;792;-75
2023/07/10 00:56:38;;;;;;;7.40;4.38;;;;;;;;;;634227;23;1348;-75
2023/07/10 00:56:54;;;;;;;6.93;4.43;;;;;;;;;;631259;23;1415;-75
2023/07/10 00:57:17;;;;;;;6.97;4.40;;;;;;;;;;628612;23;1243;-75
2023/07/10 00:57:35;;;;;;;6.63;4.22;;;;;;;;;;627121;23;1489;-76
2023/07/10 00:57:58;;;;;;;6.50;4.60;;;;;;;;;;627784;23;935;-75
2023/07/10 00:58:24;;;;;;;7.55;4.70;;;;;;;;;;627654;23;918;-76
2023/07/10 00:58:42;;;;;;;7.65;4.53;;;;;;;;;;628158;23;836;-75
2023/07/10 00:59:21;;;;;;;8.20;5.05;;;;;;;;;;631102;23;1530;-76
2023/07/10 00:59:39;;;;;;;9.50;4.95;;;;;;;;;;627377;23;1119;-75
2023/07/10 00:59:54;;;;;;;7.65;4.72;;;;;;;;;;633367;23;1359;-75
2023/07/10 01:00:18;;;;;;;6.80;4.47;;;;;;;;;;630688;23;1183;-75
2023/07/10 01:00:34;;;;;;;7.85;4.68;;;;;;;;;;629052;23;1088;-75
2023/07/10 01:01:20;;;;;;;7.80;4.40;;;;;;;;;;627549;23;1269;-75
2023/07/10 01:02:07;;;;;;;9.77;5.18;;;;;;;;;;613165;23;1249;-75
2023/07/10 01:02:23;;;;;;;6.32;4.28;;;;;;;;;;634741;23;954;-76
2023/07/10 01:02:39;;;;;;;7.47;4.53;;;;;;;;;;630836;23;1258;-75
2023/07/10 01:02:54;;;;;;;8.20;4.50;;;;;;;;;;627511;23;1356;-75
2023/07/10 01:03:12;;;;;;;8.40;4.75;;;;;;;;;;628272;23;1483;-75
2023/07/10 01:03:28;;;;;;;7.53;4.60;;;;;;;;;;625988;23;1377;-75
2023/07/10 01:03:48;;;;;;;8.18;4.70;;;;;;;;;;625076;23;1180;-75
2023/07/10 01:04:04;;;;;;;8.52;4.90;;;;;;;;;;624618;23;950;-75
2023/07/10 01:04:19;;;;;;;7.68;5.00;;;;;;;;;;621942;23;1406;-75
2023/07/10 01:04:39;;;;;;;9.47;4.93;;;;;;;;;;624689;23;781;-75
2023/07/10 01:05:02;;;;;;;10.77;4.93;;;;;;;;;;624927;23;891;-75
2023/07/10 01:05:19;;;;;;;10.25;5.20;;;;;;;;;;625370;23;1261;-75
2023/07/10 01:05:34;;;;;;;9.35;5.22;;;;;;;;;;625912;23;1459;-75
2023/07/10 01:05:49;;;;;;;9.23;4.97;;;;;;;;;;624375;23;1281;-75
2023/07/10 01:06:11;;;;;;;9.37;5.00;;;;;;;;;;625462;23;859;-75
2023/07/10 01:06:30;;;;;;;7.68;4.97;;;;;;;;;;624936;23;1446;-75
2023/07/10 01:06:45;;;;;;;8.95;4.70;;;;;;;;;;621916;23;1446;-76
2023/07/10 01:07:01;;;;;;;8.60;4.67;;;;;;;;;;619101;23;1169;-75
2023/07/10 01:07:16;;;;;;;8.53;4.70;;;;;;;;;;621977;23;1254;-75
2023/07/10 01:07:46;;;;;;;8.05;4.70;;;;;;;;;;621656;23;1204;-76
2023/07/10 01:08:01;;;;;;;7.13;4.63;;;;;;;;;;618606;23;1002;-76
2023/07/10 01:08:17;;;;;;;8.95;5.00;;;;;;;;;;624611;23;1393;-75
2023/07/10 01:08:32;;;;;;;8.00;4.77;;;;;;;;;;625015;23;1348;-76
2023/07/10 01:08:52;;;;;;;7.15;4.75;;;;;;;;;;621363;23;1442;-76
2023/07/10 01:09:08;;;;;;;9.38;5.10;;;;;;;;;;622916;23;946;-75
2023/07/10 01:09:24;;;;;;;9.35;4.90;;;;;;;;;;626166;23;883;-75
2023/07/10 01:09:41;;;;;;;8.03;4.57;;;;;;;;;;628045;23;1282;-75
2023/07/10 01:10:00;;;;;;;9.15;4.85;;;;;;;;;;625830;23;1381;-75
2023/07/10 01:10:15;;;;;;;10.13;5.10;;;;;;;;;;624843;23;1451;-76
2023/07/10 01:10:31;;;;;;;10.57;5.00;;;;;;;;;;625732;23;1208;-75
2023/07/10 01:10:46;;;;;;;9.90;4.97;;;;;;;;;;625672;23;1313;-75
2023/07/10 01:11:01;;;;;;;9.35;4.90;;;;;;;;;;624995;23;1023;-76
2023/07/10 01:11:19;;;;;;;8.07;4.73;;;;;;;;;;620950;23;1318;-75
2023/07/10 01:11:36;;;;;;;7.68;4.80;;;;;;;;;;621772;23;1227;-75
2023/07/10 01:11:51;;;;;;;8.65;4.75;;;;;;;;;;624726;23;1368;-75
2023/07/10 01:12:07;;;;;;;9.02;4.88;;;;;;;;;;624826;23;882;-75
2023/07/10 01:12:23;;;;;;;9.53;4.70;;;;;;;;;;621721;23;1336;-75
2023/07/10 01:12:41;;;;;;;9.75;4.65;;;;;;;;;;623022;23;1219;-76
2023/07/10 01:12:56;;;;;;;9.77;4.97;;;;;;;;;;622171;23;1283;-75
2023/07/10 01:13:12;;;;;;;8.18;4.90;;;;;;;;;;625780;23;1629;-75
2023/07/10 01:13:27;;;;;;;7.80;4.87;;;;;;;;;;625328;23;1966;-75
2023/07/10 01:13:45;;;;;;;8.10;4.73;;;;;;;;;;622117;23;1188;-75
2023/07/10 01:14:03;;;;;;;7.18;4.32;;;;;;;;;;621871;23;1248;-75
2023/07/10 01:14:20;;;;;;;7.60;4.40;;;;;;;;;;624596;23;1465;-76
2023/07/10 01:14:55;;;;;;;8.60;4.60;;;;;;;;;;625372;23;784;-75
2023/07/10 01:15:12;;;;;;;8.48;4.55;;;;;;;;;;627030;23;1151;-75
2023/07/10 01:15:27;;;;;;;8.80;4.93;;;;;;;;;;624579;23;1396;-74
2023/07/10 01:15:43;;;;;;;9.77;4.97;;;;;;;;;;624015;23;1324;-75
2023/07/10 01:15:58;;;;;;;8.93;4.80;;;;;;;;;;627307;23;1294;-75
2023/07/10 01:16:14;;;;;;;8.40;4.87;;;;;;;;;;630040;23;858;-74
2023/07/10 01:16:30;;;;;;;8.43;5.05;;;;;;;;;;628329;23;1259;-74
2023/07/10 01:16:47;;;;;;;7.68;4.85;;;;;;;;;;628024;23;1235;-75
2023/07/10 01:17:05;;;;;;;9.40;4.75;;;;;;;;;;624911;23;1380;-75
2023/07/10 01:17:20;;;;;;;10.38;4.95;;;;;;;;;;624595;23;1346;-74
2023/07/10 01:17:36;;;;;;;8.83;4.83;;;;;;;;;;624975;23;1287;-75
2023/07/10 01:17:51;;;;;;;9.60;4.72;;;;;;;;;;625043;23;993;-75
2023/07/10 01:18:10;;;;;;;9.17;4.77;;;;;;;;;;624428;23;1188;-75
2023/07/10 01:18:26;;;;;;;8.05;4.75;;;;;;;;;;621752;23;1561;-75
2023/07/10 01:18:42;;;;;;;8.93;5.03;;;;;;;;;;621124;23;879;-74
2023/07/10 01:18:57;;;;;;;9.95;5.25;;;;;;;;;;623479;23;1085;-75
2023/07/10 01:19:21;;;;;;;10.83;5.17;;;;;;;;;;623302;23;1214;-75
2023/07/10 01:19:38;;;;;;;12.05;5.25;;;;;;;;;;627915;23;1016;-75
2023/07/10 01:19:58;;;;;;;12.93;5.45;;;;;;;;;;627732;23;882;-75
2023/07/10 01:20:47;;;;;;;9.63;4.97;;;;;;;;;;630730;23;882;-75
2023/07/10 01:21:13;;;;;;;11.07;5.30;;;;;;;;;;620754;23;819;-76
2023/07/10 01:21:30;;;;;;;7.05;5.28;;;;;;;;;;621946;23;2031;-75
2023/07/10 01:21:46;;;;;;;6.75;4.78;;;;;;;;;;618373;23;1223;-75
2023/07/10 01:22:03;;;;;;;8.75;5.22;;;;;;;;;;618655;23;1333;-75
2023/07/10 01:22:18;;;;;;;8.73;5.30;;;;;;;;;;626645;23;1247;-75
2023/07/10 01:22:34;;;;;;;9.87;6.20;;;;;;;;;;627525;23;1253;-75
2023/07/10 01:22:49;;;;;;;11.53;6.93;;;;;;;;;;630502;23;1311;-75
2023/07/10 01:23:05;;;;;;;13.43;7.50;;;;;;;;;;631488;23;1206;-75
2023/07/10 01:23:21;;;;;;;15.77;8.50;;;;;;;;;;627263;23;1417;-75
2023/07/10 01:23:36;;;;;;;14.70;8.50;;;;;;;;;;627537;23;1188;-75
2023/07/10 01:24:11;;;;;;;15.63;9.43;;;;;;;;;;624657;23;1174;-76
2023/07/10 01:24:27;;;;;;;20.20;12.05;;;;;;;;;;621211;23;1440;-75
2023/07/10 01:24:43;;;;;;;17.77;11.52;;;;;;;;;;621962;23;1226;-75
2023/07/10 01:24:59;;;;;;;17.43;11.00;;;;;;;;;;621214;23;1212;-74
2023/07/10 01:25:14;;;;;;;18.73;11.43;;;;;;;;;;619023;23;1531;-74
2023/07/10 01:25:36;;;;;;;19.10;11.97;;;;;;;;;;622122;23;1245;-75
2023/07/10 01:26:00;;;;;;;20.05;11.98;;;;;;;;;;622295;23;1597;-75
2023/07/10 01:26:16;;;;;;;20.95;12.18;;;;;;;;;;625049;23;1433;-75
2023/07/10 01:26:33;;;;;;;19.80;11.68;;;;;;;;;;627805;23;1352;-75
2023/07/10 01:26:49;;;;;;;17.35;11.50;;;;;;;;;;627407;23;1615;-75
2023/07/10 01:27:12;;;;;;;17.63;11.33;;;;;;;;;;624770;23;1403;-75
2023/07/10 01:27:28;;;;;;;21.27;13.20;;;;;;;;;;627783;23;1262;-75
2023/07/10 01:27:43;;;;;;;23.05;14.40;;;;;;;;;;628087;23;1374;-75
2023/07/10 01:27:59;;;;;;;25.75;15.77;;;;;;;;;;627891;23;1034;-75
2023/07/10 01:28:17;;;;;;;25.00;16.07;;;;;;;;;;625200;23;1338;-74
2023/07/10 01:28:36;;;;;;;23.83;16.30;;;;;;;;;;621968;23;1376;-75
2023/07/10 01:28:53;;;;;;;22.15;15.85;;;;;;;;;;625275;23;1430;-76
2023/07/10 01:29:23;;;;;;;21.02;15.25;;;;;;;;;;621528;23;1231;-75
2023/07/10 01:29:43;;;;;;;21.63;14.88;;;;;;;;;;623309;23;828;-73
2023/07/10 01:30:17;;;;;;;22.35;14.40;;;;;;;;;;625882;23;859;-74
2023/07/10 01:30:34;;;;;;;22.63;14.55;;;;;;;;;;630589;23;930;-74
2023/07/10 01:30:53;;;;;;;22.55;14.80;;;;;;;;;;630554;23;922;-75
2023/07/10 01:31:12;;;;;;;22.13;14.60;;;;;;;;;;633637;23;830;-74
2023/07/10 01:31:28;;;;;;;20.73;14.45;;;;;;;;;;634028;23;1304;-74
2023/07/10 01:31:44;;;;;;;21.45;14.43;;;;;;;;;;630685;23;1247;-75
2023/07/10 01:32:00;;;;;;;22.02;14.73;;;;;;;;;;627618;23;1313;-74
2023/07/10 01:32:17;;;;;;;22.60;15.25;;;;;;;;;;627419;23;890;-74
2023/07/10 01:32:33;;;;;;;23.30;15.55;;;;;;;;;;624297;23;1501;-75
2023/07/10 01:32:49;;;;;;;21.92;15.45;;;;;;;;;;624587;23;1361;-74
2023/07/10 01:33:09;;;;;;;23.35;16.58;;;;;;;;;;625301;23;1315;-75
2023/07/10 01:33:35;;;;;;;26.55;18.10;;;;;;;;;;628030;23;1376;-73
2023/07/10 01:33:57;;;;;;;26.73;18.60;;;;;;;;;;632186;23;883;-74
2023/07/10 01:34:13;;;;;;;30.30;19.65;;;;;;;;;;633901;23;1045;-74
2023/07/10 01:34:50;;;;;;;32.88;20.15;;;;;;;;;;634141;23;937;-74
2023/07/10 01:35:06;;;;;;;26.23;18.42;;;;;;;;;;630828;23;835;-75
2023/07/10 01:35:26;;;;;;;25.75;19.15;;;;;;;;;;633581;23;886;-75
2023/07/10 01:35:43;;;;;;;29.70;21.02;;;;;;;;;;633416;23;1576;-76
2023/07/10 01:36:00;;;;;;;28.98;20.40;;;;;;;;;;630397;23;1450;-75
2023/07/10 01:36:20;;;;;;;28.30;20.65;;;;;;;;;;631247;23;871;-76
2023/07/10 01:36:38;;;;;;;31.08;21.15;;;;;;;;;;628012;23;1417;-76
2023/07/10 01:36:54;;;;;;;32.65;21.27;;;;;;;;;;628331;23;898;-75
2023/07/10 01:37:11;;;;;;;33.88;21.90;;;;;;;;;;630474;23;1242;-75
2023/07/10 01:37:26;;;;;;;34.60;22.55;;;;;;;;;;627915;23;1242;-76
2023/07/10 01:37:42;;;;;;;32.40;22.73;;;;;;;;;;624524;23;1223;-75
2023/07/10 01:37:57;;;;;;;32.55;22.63;;;;;;;;;;627412;23;1098;-75
2023/07/10 01:38:14;;;;;;;33.77;22.83;;;;;;;;;;627162;23;1266;-75
2023/07/10 01:38:34;;;;;;;33.20;22.38;;;;;;;;;;627880;23;831;-76
2023/07/10 01:38:55;;;;;;;31.33;21.92;;;;;;;;;;624721;23;1284;-75
2023/07/10 01:39:13;;;;;;;29.98;21.48;;;;;;;;;;624275;23;1444;-75
2023/07/10 01:39:54;;;;;;;31.27;22.20;;;;;;;;;;625037;23;1299;-76
2023/07/10 01:40:14;;;;;;;34.95;23.42;;;;;;;;;;626516;23;1386;-75
2023/07/10 01:40:36;;;;;;;30.42;21.60;;;;;;;;;;624642;23;1251;-75
2023/07/10 01:40:54;;;;;;;28.83;20.73;;;;;;;;;;624539;23;894;-76
2023/07/10 01:41:32;;;;;;;31.90;21.00;;;;;;;;;;627620;23;939;-75
2023/07/10 01:41:47;;;;;;;32.28;21.42;;;;;;;;;;630906;23;850;-75
2023/07/10 01:42:02;;;;;;;30.08;20.25;;;;;;;;;;632678;23;816;-75
2023/07/10 01:42:19;;;;;;;30.83;20.47;;;;;;;;;;631532;23;1310;-75
2023/07/10 01:42:34;;;;;;;32.08;20.42;;;;;;;;;;633986;23;1028;-75
2023/07/10 01:42:49;;;;;;;33.10;20.30;;;;;;;;;;631191;23;1193;-76
2023/07/10 01:43:09;;;;;;;32.90;20.30;;;;;;;;;;630718;23;1489;-75
2023/07/10 01:43:24;;;;;;;30.80;20.27;;;;;;;;;;627416;23;1021;-75
2023/07/10 01:43:39;;;;;;;31.47;20.23;;;;;;;;;;627517;23;818;-74
2023/07/10 01:43:55;;;;;;;29.63;20.17;;;;;;;;;;628376;23;882;-75
2023/07/10 01:44:28;;;;;;;29.60;20.07;;;;;;;;;;629274;23;855;-75
2023/07/10 01:44:46;;;;;;;33.45;20.95;;;;;;;;;;627636;23;1455;-75
2023/07/10 01:45:02;;;;;;;30.85;20.15;;;;;;;;;;629739;23;934;-75
2023/07/10 01:45:18;;;;;;;30.50;21.00;;;;;;;;;;632523;23;886;-75
2023/07/10 01:45:47;;;;;;;33.03;21.80;;;;;;;;;;635444;23;1289;-75
2023/07/10 01:46:16;;;;;;;32.75;21.27;;;;;;;;;;634291;23;878;-75
2023/07/10 01:46:32;;;;;;;34.00;21.33;;;;;;;;;;633814;23;1385;-75
2023/07/10 01:46:49;;;;;;;30.47;20.00;;;;;;;;;;633882;23;974;-75
2023/07/10 01:47:07;;;;;;;29.33;19.67;;;;;;;;;;633395;23;1457;-75
2023/07/10 01:47:22;;;;;;;27.88;18.65;;;;;;;;;;630409;23;1333;-75
2023/07/10 01:47:38;;;;;;;28.87;19.00;;;;;;;;;;629764;23;1289;-75
2023/07/10 01:47:54;;;;;;;28.20;18.73;;;;;;;;;;630505;23;1004;-75
2023/07/10 01:48:12;;;;;;;27.30;18.90;;;;;;;;;;627956;23;1425;-75
2023/07/10 01:48:28;;;;;;;27.17;17.63;;;;;;;;;;627098;23;1060;-75
2023/07/10 01:48:45;;;;;;;26.33;17.85;;;;;;;;;;624174;23;1299;-75
2023/07/10 01:49:01;;;;;;;27.77;18.10;;;;;;;;;;620908;23;1236;-75
2023/07/10 01:49:18;;;;;;;28.63;17.67;;;;;;;;;;623246;23;787;-75
2023/07/10 01:49:41;;;;;;;28.13;17.70;;;;;;;;;;626805;23;898;-75
2023/07/10 01:49:58;;;;;;;24.70;16.80;;;;;;;;;;627964;23;942;-75
2023/07/10 01:50:13;;;;;;;21.90;15.65;;;;;;;;;;627840;23;1243;-76
2023/07/10 01:50:29;;;;;;;22.47;15.70;;;;;;;;;;625033;23;1275;-75
2023/07/10 01:50:44;;;;;;;23.73;16.40;;;;;;;;;;624484;23;1287;-75
2023/07/10 01:51:00;;;;;;;23.65;16.63;;;;;;;;;;624657;23;1628;-75
2023/07/10 01:51:15;;;;;;;25.43;16.70;;;;;;;;;;624645;23;1239;-75
2023/07/10 01:51:31;;;;;;;27.38;17.05;;;;;;;;;;624788;23;1025;-76
2023/07/10 01:51:46;;;;;;;26.20;17.53;;;;;;;;;;625126;23;927;-75
2023/07/10 01:52:04;;;;;;;27.30;17.87;;;;;;;;;;625119;23;1227;-76
2023/07/10 01:52:21;;;;;;;27.60;17.27;;;;;;;;;;629429;23;1334;-75
2023/07/10 01:52:37;;;;;;;26.20;16.65;;;;;;;;;;629258;23;1660;-75
2023/07/10 01:52:53;;;;;;;27.05;16.65;;;;;;;;;;628241;23;1410;-76
2023/07/10 01:53:10;;;;;;;29.07;17.20;;;;;;;;;;625363;23;1193;-76
2023/07/10 01:53:25;;;;;;;30.42;17.42;;;;;;;;;;622074;23;1250;-75
2023/07/10 01:53:44;;;;;;;29.13;17.13;;;;;;;;;;618295;23;1964;-76
2023/07/10 01:54:03;;;;;;;27.58;16.27;;;;;;;;;;621956;23;1145;-75
2023/07/10 01:54:18;;;;;;;25.98;15.65;;;;;;;;;;624905;23;1188;-75
2023/07/10 01:54:34;;;;;;;24.48;15.57;;;;;;;;;;625672;23;1511;-76
2023/07/10 01:54:50;;;;;;;25.27;15.63;;;;;;;;;;625193;23;1255;-76
2023/07/10 01:55:06;;;;;;;23.27;14.95;;;;;;;;;;625094;23;923;-75
2023/07/10 01:55:23;;;;;;;18.97;14.00;;;;;;;;;;624413;23;1251;-76